sensor_id;sensor_type;location;lat;lon;timestamp;P1;durP1;ratioP1;P2;durP2;ratioP2
2147;SDS011;1080;48.724;9.104;2022-11-06T00:00:04;9.80;;;7.83;;
2147;SDS011;1080;48.724;9.104;2022-11-06T00:02:32;11.90;;;8.80;;
2147;SDS011;1080;48.724;9.104;2022-11-06T00:04:59;12.93;;;8.60;;
2147;SDS011;1080;48.724;9.104;2022-11-06T00:07:43;13.10;;;8.53;;
2147;SDS011;1080;48.724;9.104;2022-11-06T00:10:10;14.90;;;8.33;;
2147;SDS011;1080;48.724;9.104;2022-11-06T00:12:37;13.70;;;8.83;;
2147;SDS011;1080;48.724;9.104;2022-11-06T00:15:05;11.90;;;8.67;;
2147;SDS011;1080;48.724;9.104;2022-11-06T00:17:32;13.93;;;10.00;;
2147;SDS011;1080;48.724;9.104;2022-11-06T00:19:59;15.33;;;8.50;;
2147;SDS011;1080;48.724;9.104;2022-11-06T00:22:26;11.53;;;8.07;;
2147;SDS011;1080;48.724;9.104;2022-11-06T00:24:55;13.83;;;9.77;;
2147;SDS011;1080;48.724;9.104;2022-11-06T00:27:22;15.13;;;9.87;;
2147;SDS011;1080;48.724;9.104;2022-11-06T00:29:49;11.87;;;8.70;;
2147;SDS011;1080;48.724;9.104;2022-11-06T00:32:16;14.07;;;10.17;;
2147;SDS011;1080;48.724;9.104;2022-11-06T00:34:43;11.17;;;7.90;;
2147;SDS011;1080;48.724;9.104;2022-11-06T00:37:10;43.53;;;24.80;;
2147;SDS011;1080;48.724;9.104;2022-11-06T00:39:37;17.33;;;12.00;;
2147;SDS011;1080;48.724;9.104;2022-11-06T00:42:06;18.63;;;13.47;;
2147;SDS011;1080;48.724;9.104;2022-11-06T00:44:32;15.50;;;11.27;;
2147;SDS011;1080;48.724;9.104;2022-11-06T00:47:00;18.30;;;12.23;;
2147;SDS011;1080;48.724;9.104;2022-11-06T00:49:27;15.70;;;11.07;;
2147;SDS011;1080;48.724;9.104;2022-11-06T00:51:54;18.13;;;11.20;;
2147;SDS011;1080;48.724;9.104;2022-11-06T00:54:21;14.00;;;10.40;;
2147;SDS011;1080;48.724;9.104;2022-11-06T00:56:48;16.70;;;10.30;;
2147;SDS011;1080;48.724;9.104;2022-11-06T00:59:17;16.47;;;9.53;;
2147;SDS011;1080;48.724;9.104;2022-11-06T01:01:44;12.20;;;9.30;;
2147;SDS011;1080;48.724;9.104;2022-11-06T01:04:12;13.40;;;8.80;;
2147;SDS011;1080;48.724;9.104;2022-11-06T01:06:41;12.37;;;9.27;;
2147;SDS011;1080;48.724;9.104;2022-11-06T01:09:10;13.33;;;8.80;;
2147;SDS011;1080;48.724;9.104;2022-11-06T01:11:39;12.60;;;8.80;;
2147;SDS011;1080;48.724;9.104;2022-11-06T01:14:07;12.40;;;8.93;;
2147;SDS011;1080;48.724;9.104;2022-11-06T01:16:38;12.87;;;9.20;;
2147;SDS011;1080;48.724;9.104;2022-11-06T01:19:05;13.30;;;9.27;;
2147;SDS011;1080;48.724;9.104;2022-11-06T01:21:33;17.17;;;10.77;;
2147;SDS011;1080;48.724;9.104;2022-11-06T01:24:03;13.33;;;9.63;;
2147;SDS011;1080;48.724;9.104;2022-11-06T01:26:31;16.43;;;10.20;;
2147;SDS011;1080;48.724;9.104;2022-11-06T01:28:59;16.77;;;9.30;;
2147;SDS011;1080;48.724;9.104;2022-11-06T01:31:27;11.57;;;8.80;;
2147;SDS011;1080;48.724;9.104;2022-11-06T01:33:57;12.23;;;9.00;;
2147;SDS011;1080;48.724;9.104;2022-11-06T01:36:25;14.30;;;9.27;;
2147;SDS011;1080;48.724;9.104;2022-11-06T01:38:53;11.33;;;8.10;;
2147;SDS011;1080;48.724;9.104;2022-11-06T01:41:23;14.43;;;8.77;;
2147;SDS011;1080;48.724;9.104;2022-11-06T01:43:52;11.90;;;8.40;;
2147;SDS011;1080;48.724;9.104;2022-11-06T01:46:20;13.53;;;7.37;;
2147;SDS011;1080;48.724;9.104;2022-11-06T01:48:49;11.77;;;8.20;;
2147;SDS011;1080;48.724;9.104;2022-11-06T01:51:20;13.53;;;8.10;;
2147;SDS011;1080;48.724;9.104;2022-11-06T01:53:49;12.70;;;8.27;;
2147;SDS011;1080;48.724;9.104;2022-11-06T01:56:17;12.77;;;7.67;;
2147;SDS011;1080;48.724;9.104;2022-11-06T01:58:45;14.77;;;8.33;;
2147;SDS011;1080;48.724;9.104;2022-11-06T02:01:14;13.83;;;8.93;;
2147;SDS011;1080;48.724;9.104;2022-11-06T02:03:43;10.23;;;8.40;;
2147;SDS011;1080;48.724;9.104;2022-11-06T02:06:16;9.70;;;7.03;;
2147;SDS011;1080;48.724;9.104;2022-11-06T02:08:45;13.43;;;8.40;;
2147;SDS011;1080;48.724;9.104;2022-11-06T02:11:12;11.83;;;7.93;;
2147;SDS011;1080;48.724;9.104;2022-11-06T02:13:42;11.27;;;7.80;;
2147;SDS011;1080;48.724;9.104;2022-11-06T02:16:15;11.53;;;7.50;;
2147;SDS011;1080;48.724;9.104;2022-11-06T02:19:01;11.77;;;6.27;;
2147;SDS011;1080;48.724;9.104;2022-11-06T02:21:57;11.43;;;7.47;;
2147;SDS011;1080;48.724;9.104;2022-11-06T02:24:44;11.27;;;7.20;;
2147;SDS011;1080;48.724;9.104;2022-11-06T02:27:33;14.87;;;7.40;;
2147;SDS011;1080;48.724;9.104;2022-11-06T02:30:02;9.93;;;7.17;;
2147;SDS011;1080;48.724;9.104;2022-11-06T02:32:31;12.80;;;7.33;;
2147;SDS011;1080;48.724;9.104;2022-11-06T02:35:08;9.67;;;6.80;;
2147;SDS011;1080;48.724;9.104;2022-11-06T02:37:41;11.03;;;7.47;;
2147;SDS011;1080;48.724;9.104;2022-11-06T02:40:09;9.77;;;7.10;;
2147;SDS011;1080;48.724;9.104;2022-11-06T02:42:40;8.77;;;6.60;;
2147;SDS011;1080;48.724;9.104;2022-11-06T02:45:11;11.87;;;7.13;;
2147;SDS011;1080;48.724;9.104;2022-11-06T02:47:41;11.70;;;7.10;;
2147;SDS011;1080;48.724;9.104;2022-11-06T02:50:10;13.40;;;7.60;;
2147;SDS011;1080;48.724;9.104;2022-11-06T02:52:42;10.73;;;7.50;;
2147;SDS011;1080;48.724;9.104;2022-11-06T02:55:13;13.10;;;7.03;;
2147;SDS011;1080;48.724;9.104;2022-11-06T02:57:46;10.20;;;7.30;;
2147;SDS011;1080;48.724;9.104;2022-11-06T03:00:17;11.57;;;8.47;;
2147;SDS011;1080;48.724;9.104;2022-11-06T03:02:47;12.00;;;7.50;;
2147;SDS011;1080;48.724;9.104;2022-11-06T03:05:18;10.40;;;6.90;;
2147;SDS011;1080;48.724;9.104;2022-11-06T03:07:51;10.13;;;6.70;;
2147;SDS011;1080;48.724;9.104;2022-11-06T03:10:24;13.27;;;7.50;;
2147;SDS011;1080;48.724;9.104;2022-11-06T03:12:57;12.90;;;8.03;;
2147;SDS011;1080;48.724;9.104;2022-11-06T03:15:30;10.03;;;7.10;;
2147;SDS011;1080;48.724;9.104;2022-11-06T03:18:06;8.93;;;6.90;;
2147;SDS011;1080;48.724;9.104;2022-11-06T03:20:39;11.90;;;7.67;;
2147;SDS011;1080;48.724;9.104;2022-11-06T03:23:10;11.40;;;7.20;;
2147;SDS011;1080;48.724;9.104;2022-11-06T03:25:43;12.73;;;7.53;;
2147;SDS011;1080;48.724;9.104;2022-11-06T03:28:17;12.17;;;8.57;;
2147;SDS011;1080;48.724;9.104;2022-11-06T03:30:52;12.87;;;7.43;;
2147;SDS011;1080;48.724;9.104;2022-11-06T03:33:25;10.73;;;6.30;;
2147;SDS011;1080;48.724;9.104;2022-11-06T03:35:59;10.60;;;6.50;;
2147;SDS011;1080;48.724;9.104;2022-11-06T03:38:30;9.67;;;6.23;;
2147;SDS011;1080;48.724;9.104;2022-11-06T03:41:01;13.43;;;8.27;;
2147;SDS011;1080;48.724;9.104;2022-11-06T03:43:33;14.80;;;7.53;;
2147;SDS011;1080;48.724;9.104;2022-11-06T03:46:02;10.23;;;6.20;;
2147;SDS011;1080;48.724;9.104;2022-11-06T03:48:33;11.00;;;7.60;;
2147;SDS011;1080;48.724;9.104;2022-11-06T03:51:05;12.13;;;8.03;;
2147;SDS011;1080;48.724;9.104;2022-11-06T03:53:39;11.37;;;6.77;;
2147;SDS011;1080;48.724;9.104;2022-11-06T03:56:11;10.00;;;7.23;;
2147;SDS011;1080;48.724;9.104;2022-11-06T03:58:44;10.90;;;6.17;;
2147;SDS011;1080;48.724;9.104;2022-11-06T04:01:13;10.07;;;6.40;;
2147;SDS011;1080;48.724;9.104;2022-11-06T04:03:46;10.13;;;7.23;;
2147;SDS011;1080;48.724;9.104;2022-11-06T04:06:16;9.57;;;6.40;;
2147;SDS011;1080;48.724;9.104;2022-11-06T04:08:47;9.40;;;6.77;;
2147;SDS011;1080;48.724;9.104;2022-11-06T04:11:35;11.23;;;6.93;;
2147;SDS011;1080;48.724;9.104;2022-11-06T04:14:22;10.83;;;6.77;;
2147;SDS011;1080;48.724;9.104;2022-11-06T04:16:52;14.20;;;6.73;;
2147;SDS011;1080;48.724;9.104;2022-11-06T04:19:21;10.20;;;6.67;;
2147;SDS011;1080;48.724;9.104;2022-11-06T04:21:54;9.27;;;5.90;;
2147;SDS011;1080;48.724;9.104;2022-11-06T04:24:30;9.93;;;6.27;;
2147;SDS011;1080;48.724;9.104;2022-11-06T04:27:27;8.53;;;5.87;;
2147;SDS011;1080;48.724;9.104;2022-11-06T04:30:05;11.63;;;7.50;;
2147;SDS011;1080;48.724;9.104;2022-11-06T04:32:38;9.93;;;6.87;;
2147;SDS011;1080;48.724;9.104;2022-11-06T04:35:23;11.70;;;7.13;;
2147;SDS011;1080;48.724;9.104;2022-11-06T04:37:57;10.53;;;7.50;;
2147;SDS011;1080;48.724;9.104;2022-11-06T04:40:31;9.17;;;7.30;;
2147;SDS011;1080;48.724;9.104;2022-11-06T04:43:02;10.00;;;7.23;;
2147;SDS011;1080;48.724;9.104;2022-11-06T04:45:35;11.50;;;6.30;;
2147;SDS011;1080;48.724;9.104;2022-11-06T04:48:05;12.77;;;7.30;;
2147;SDS011;1080;48.724;9.104;2022-11-06T04:50:35;8.93;;;7.00;;
2147;SDS011;1080;48.724;9.104;2022-11-06T04:53:05;10.87;;;7.20;;
2147;SDS011;1080;48.724;9.104;2022-11-06T04:55:36;9.23;;;6.27;;
2147;SDS011;1080;48.724;9.104;2022-11-06T04:58:09;9.00;;;6.47;;
2147;SDS011;1080;48.724;9.104;2022-11-06T05:00:38;8.30;;;5.97;;
2147;SDS011;1080;48.724;9.104;2022-11-06T05:03:10;9.10;;;5.73;;
2147;SDS011;1080;48.724;9.104;2022-11-06T05:05:37;7.63;;;5.80;;
2147;SDS011;1080;48.724;9.104;2022-11-06T05:08:05;10.13;;;6.73;;
2147;SDS011;1080;48.724;9.104;2022-11-06T05:10:32;14.93;;;5.97;;
2147;SDS011;1080;48.724;9.104;2022-11-06T05:12:59;10.10;;;6.80;;
2147;SDS011;1080;48.724;9.104;2022-11-06T05:15:26;8.67;;;5.90;;
2147;SDS011;1080;48.724;9.104;2022-11-06T05:17:55;8.83;;;5.97;;
2147;SDS011;1080;48.724;9.104;2022-11-06T05:20:22;9.00;;;6.10;;
2147;SDS011;1080;48.724;9.104;2022-11-06T05:22:50;8.17;;;5.90;;
2147;SDS011;1080;48.724;9.104;2022-11-06T05:25:24;8.43;;;6.33;;
2147;SDS011;1080;48.724;9.104;2022-11-06T05:27:51;9.47;;;6.60;;
2147;SDS011;1080;48.724;9.104;2022-11-06T05:30:18;9.50;;;6.10;;
2147;SDS011;1080;48.724;9.104;2022-11-06T05:32:46;8.40;;;5.30;;
2147;SDS011;1080;48.724;9.104;2022-11-06T05:35:14;6.90;;;5.27;;
2147;SDS011;1080;48.724;9.104;2022-11-06T05:37:42;8.10;;;5.20;;
2147;SDS011;1080;48.724;9.104;2022-11-06T05:40:09;8.17;;;5.43;;
2147;SDS011;1080;48.724;9.104;2022-11-06T05:42:36;8.47;;;5.57;;
2147;SDS011;1080;48.724;9.104;2022-11-06T05:45:04;8.70;;;6.20;;
2147;SDS011;1080;48.724;9.104;2022-11-06T05:47:31;10.40;;;6.67;;
2147;SDS011;1080;48.724;9.104;2022-11-06T05:50:00;9.70;;;6.43;;
2147;SDS011;1080;48.724;9.104;2022-11-06T05:52:28;10.10;;;6.73;;
2147;SDS011;1080;48.724;9.104;2022-11-06T05:54:55;11.03;;;5.80;;
2147;SDS011;1080;48.724;9.104;2022-11-06T05:57:22;7.33;;;4.90;;
2147;SDS011;1080;48.724;9.104;2022-11-06T05:59:49;8.93;;;6.07;;
2147;SDS011;1080;48.724;9.104;2022-11-06T06:02:17;11.33;;;6.40;;
2147;SDS011;1080;48.724;9.104;2022-11-06T06:04:44;8.37;;;6.30;;
2147;SDS011;1080;48.724;9.104;2022-11-06T06:07:11;12.73;;;7.30;;
2147;SDS011;1080;48.724;9.104;2022-11-06T06:09:40;7.87;;;5.30;;
2147;SDS011;1080;48.724;9.104;2022-11-06T06:12:07;9.47;;;5.57;;
2147;SDS011;1080;48.724;9.104;2022-11-06T06:14:34;8.97;;;6.50;;
2147;SDS011;1080;48.724;9.104;2022-11-06T06:17:01;6.90;;;4.93;;
2147;SDS011;1080;48.724;9.104;2022-11-06T06:19:29;7.53;;;5.37;;
2147;SDS011;1080;48.724;9.104;2022-11-06T06:21:56;10.20;;;6.50;;
2147;SDS011;1080;48.724;9.104;2022-11-06T06:24:23;7.70;;;5.87;;
2147;SDS011;1080;48.724;9.104;2022-11-06T06:26:51;7.30;;;5.27;;
2147;SDS011;1080;48.724;9.104;2022-11-06T06:29:18;7.83;;;5.93;;
2147;SDS011;1080;48.724;9.104;2022-11-06T06:31:46;10.23;;;6.20;;
2147;SDS011;1080;48.724;9.104;2022-11-06T06:34:13;8.27;;;5.63;;
2147;SDS011;1080;48.724;9.104;2022-11-06T06:36:41;9.90;;;6.80;;
2147;SDS011;1080;48.724;9.104;2022-11-06T06:39:08;9.17;;;6.40;;
2147;SDS011;1080;48.724;9.104;2022-11-06T06:41:35;10.53;;;6.93;;
2147;SDS011;1080;48.724;9.104;2022-11-06T06:44:04;8.50;;;5.83;;
2147;SDS011;1080;48.724;9.104;2022-11-06T06:46:31;9.83;;;6.80;;
2147;SDS011;1080;48.724;9.104;2022-11-06T06:48:58;9.80;;;6.80;;
2147;SDS011;1080;48.724;9.104;2022-11-06T06:51:25;15.83;;;8.10;;
2147;SDS011;1080;48.724;9.104;2022-11-06T06:53:52;11.33;;;6.90;;
2147;SDS011;1080;48.724;9.104;2022-11-06T06:56:19;12.53;;;7.17;;
2147;SDS011;1080;48.724;9.104;2022-11-06T06:58:46;12.40;;;7.17;;
2147;SDS011;1080;48.724;9.104;2022-11-06T07:01:15;8.47;;;6.50;;
2147;SDS011;1080;48.724;9.104;2022-11-06T07:03:42;8.90;;;6.23;;
2147;SDS011;1080;48.724;9.104;2022-11-06T07:06:09;8.63;;;5.90;;
2147;SDS011;1080;48.724;9.104;2022-11-06T07:08:37;10.37;;;7.00;;
2147;SDS011;1080;48.724;9.104;2022-11-06T07:11:04;10.43;;;6.37;;
2147;SDS011;1080;48.724;9.104;2022-11-06T07:13:32;9.80;;;6.77;;
2147;SDS011;1080;48.724;9.104;2022-11-06T07:16:01;9.33;;;6.87;;
2147;SDS011;1080;48.724;9.104;2022-11-06T07:18:29;9.57;;;6.60;;
2147;SDS011;1080;48.724;9.104;2022-11-06T07:20:56;9.97;;;6.63;;
2147;SDS011;1080;48.724;9.104;2022-11-06T07:23:24;7.77;;;5.90;;
2147;SDS011;1080;48.724;9.104;2022-11-06T07:25:51;10.63;;;6.97;;
2147;SDS011;1080;48.724;9.104;2022-11-06T07:28:19;11.60;;;7.43;;
2147;SDS011;1080;48.724;9.104;2022-11-06T07:30:46;11.30;;;7.10;;
2147;SDS011;1080;48.724;9.104;2022-11-06T07:33:13;8.00;;;6.20;;
2147;SDS011;1080;48.724;9.104;2022-11-06T07:35:42;10.43;;;7.70;;
2147;SDS011;1080;48.724;9.104;2022-11-06T07:38:09;11.93;;;7.13;;
2147;SDS011;1080;48.724;9.104;2022-11-06T07:40:36;11.83;;;7.83;;
2147;SDS011;1080;48.724;9.104;2022-11-06T07:43:03;11.20;;;7.50;;
2147;SDS011;1080;48.724;9.104;2022-11-06T07:45:30;14.23;;;9.23;;
2147;SDS011;1080;48.724;9.104;2022-11-06T07:47:58;11.20;;;8.00;;
2147;SDS011;1080;48.724;9.104;2022-11-06T07:50:25;14.50;;;7.87;;
2147;SDS011;1080;48.724;9.104;2022-11-06T07:52:54;13.13;;;7.87;;
2147;SDS011;1080;48.724;9.104;2022-11-06T07:55:21;10.03;;;6.73;;
2147;SDS011;1080;48.724;9.104;2022-11-06T07:57:48;14.00;;;6.90;;
2147;SDS011;1080;48.724;9.104;2022-11-06T08:00:15;9.27;;;6.47;;
2147;SDS011;1080;48.724;9.104;2022-11-06T08:02:42;8.83;;;6.73;;
2147;SDS011;1080;48.724;9.104;2022-11-06T08:05:09;8.47;;;5.77;;
2147;SDS011;1080;48.724;9.104;2022-11-06T08:07:37;8.07;;;5.83;;
2147;SDS011;1080;48.724;9.104;2022-11-06T08:10:06;7.27;;;6.13;;
2147;SDS011;1080;48.724;9.104;2022-11-06T08:12:33;7.10;;;5.50;;
2147;SDS011;1080;48.724;9.104;2022-11-06T08:15:00;7.40;;;6.20;;
2147;SDS011;1080;48.724;9.104;2022-11-06T08:17:27;10.80;;;6.77;;
2147;SDS011;1080;48.724;9.104;2022-11-06T08:19:55;8.10;;;5.50;;
2147;SDS011;1080;48.724;9.104;2022-11-06T08:22:23;7.37;;;5.90;;
2147;SDS011;1080;48.724;9.104;2022-11-06T08:24:50;6.33;;;5.30;;
2147;SDS011;1080;48.724;9.104;2022-11-06T08:27:20;6.53;;;5.93;;
2147;SDS011;1080;48.724;9.104;2022-11-06T08:29:47;6.20;;;5.53;;
2147;SDS011;1080;48.724;9.104;2022-11-06T08:32:14;7.33;;;6.20;;
2147;SDS011;1080;48.724;9.104;2022-11-06T08:34:41;7.53;;;6.80;;
2147;SDS011;1080;48.724;9.104;2022-11-06T08:37:08;7.60;;;6.33;;
2147;SDS011;1080;48.724;9.104;2022-11-06T08:39:36;8.40;;;5.70;;
2147;SDS011;1080;48.724;9.104;2022-11-06T08:42:03;6.90;;;6.20;;
2147;SDS011;1080;48.724;9.104;2022-11-06T08:44:32;7.80;;;7.00;;
2147;SDS011;1080;48.724;9.104;2022-11-06T08:46:59;12.50;;;6.17;;
2147;SDS011;1080;48.724;9.104;2022-11-06T08:49:26;6.87;;;5.90;;
2147;SDS011;1080;48.724;9.104;2022-11-06T08:51:53;6.37;;;5.63;;
2147;SDS011;1080;48.724;9.104;2022-11-06T08:54:20;6.83;;;6.13;;
2147;SDS011;1080;48.724;9.104;2022-11-06T08:56:48;8.30;;;6.07;;
2147;SDS011;1080;48.724;9.104;2022-11-06T08:59:15;5.97;;;5.37;;
2147;SDS011;1080;48.724;9.104;2022-11-06T09:01:43;6.83;;;6.13;;
2147;SDS011;1080;48.724;9.104;2022-11-06T09:04:10;6.10;;;5.40;;
2147;SDS011;1080;48.724;9.104;2022-11-06T09:06:37;5.97;;;5.37;;
2147;SDS011;1080;48.724;9.104;2022-11-06T09:09:04;5.10;;;4.57;;
2147;SDS011;1080;48.724;9.104;2022-11-06T09:11:32;8.50;;;5.50;;
2147;SDS011;1080;48.724;9.104;2022-11-06T09:13:59;5.80;;;4.40;;
2147;SDS011;1080;48.724;9.104;2022-11-06T09:16:26;4.77;;;4.27;;
2147;SDS011;1080;48.724;9.104;2022-11-06T09:18:54;8.30;;;4.53;;
2147;SDS011;1080;48.724;9.104;2022-11-06T09:21:22;5.73;;;4.50;;
2147;SDS011;1080;48.724;9.104;2022-11-06T09:23:49;7.20;;;5.47;;
2147;SDS011;1080;48.724;9.104;2022-11-06T09:26:16;5.27;;;4.43;;
2147;SDS011;1080;48.724;9.104;2022-11-06T09:28:44;5.70;;;4.00;;
2147;SDS011;1080;48.724;9.104;2022-11-06T09:31:11;7.57;;;4.73;;
2147;SDS011;1080;48.724;9.104;2022-11-06T09:33:38;7.23;;;5.57;;
2147;SDS011;1080;48.724;9.104;2022-11-06T09:36:08;7.50;;;4.10;;
2147;SDS011;1080;48.724;9.104;2022-11-06T09:38:35;5.47;;;4.17;;
2147;SDS011;1080;48.724;9.104;2022-11-06T09:41:03;3.87;;;3.07;;
2147;SDS011;1080;48.724;9.104;2022-11-06T09:43:36;7.60;;;4.87;;
2147;SDS011;1080;48.724;9.104;2022-11-06T09:46:18;4.83;;;3.83;;
2147;SDS011;1080;48.724;9.104;2022-11-06T09:48:51;7.50;;;5.07;;
2147;SDS011;1080;48.724;9.104;2022-11-06T09:51:26;6.03;;;3.53;;
2147;SDS011;1080;48.724;9.104;2022-11-06T09:53:59;4.40;;;3.80;;
2147;SDS011;1080;48.724;9.104;2022-11-06T09:56:33;6.10;;;3.90;;
2147;SDS011;1080;48.724;9.104;2022-11-06T09:59:03;6.20;;;3.03;;
2147;SDS011;1080;48.724;9.104;2022-11-06T10:01:34;4.70;;;3.30;;
2147;SDS011;1080;48.724;9.104;2022-11-06T10:04:10;3.70;;;3.40;;
2147;SDS011;1080;48.724;9.104;2022-11-06T10:06:53;4.20;;;3.20;;
2147;SDS011;1080;48.724;9.104;2022-11-06T10:09:20;3.83;;;2.80;;
2147;SDS011;1080;48.724;9.104;2022-11-06T10:11:57;4.30;;;3.40;;
2147;SDS011;1080;48.724;9.104;2022-11-06T10:14:32;4.13;;;2.90;;
2147;SDS011;1080;48.724;9.104;2022-11-06T10:17:10;4.30;;;3.40;;
2147;SDS011;1080;48.724;9.104;2022-11-06T10:19:45;3.87;;;3.10;;
2147;SDS011;1080;48.724;9.104;2022-11-06T10:22:16;4.57;;;3.70;;
2147;SDS011;1080;48.724;9.104;2022-11-06T10:24:46;4.53;;;4.13;;
2147;SDS011;1080;48.724;9.104;2022-11-06T10:27:22;3.70;;;3.23;;
2147;SDS011;1080;48.724;9.104;2022-11-06T10:29:55;5.40;;;4.90;;
2147;SDS011;1080;48.724;9.104;2022-11-06T10:35:17;15.33;;;10.53;;
2147;SDS011;1080;48.724;9.104;2022-11-06T10:37:49;9.43;;;8.43;;
2147;SDS011;1080;48.724;9.104;2022-11-06T10:40:21;22.97;;;17.33;;
2147;SDS011;1080;48.724;9.104;2022-11-06T10:42:53;99.07;;;64.03;;
2147;SDS011;1080;48.724;9.104;2022-11-06T10:45:21;111.10;;;60.70;;
2147;SDS011;1080;48.724;9.104;2022-11-06T10:47:50;104.07;;;56.97;;
2147;SDS011;1080;48.724;9.104;2022-11-06T10:50:18;181.30;;;75.00;;
2147;SDS011;1080;48.724;9.104;2022-11-06T10:52:48;185.13;;;76.23;;
2147;SDS011;1080;48.724;9.104;2022-11-06T10:55:29;174.63;;;73.50;;
2147;SDS011;1080;48.724;9.104;2022-11-06T10:58:01;100.07;;;56.73;;
2147;SDS011;1080;48.724;9.104;2022-11-06T11:00:28;152.00;;;68.10;;
2147;SDS011;1080;48.724;9.104;2022-11-06T11:02:58;164.83;;;70.67;;
2147;SDS011;1080;48.724;9.104;2022-11-06T11:05:33;101.60;;;55.33;;
2147;SDS011;1080;48.724;9.104;2022-11-06T11:08:01;47.33;;;32.67;;
2147;SDS011;1080;48.724;9.104;2022-11-06T11:10:30;42.93;;;37.43;;
2147;SDS011;1080;48.724;9.104;2022-11-06T11:12:58;45.53;;;37.73;;
2147;SDS011;1080;48.724;9.104;2022-11-06T11:15:26;82.60;;;50.27;;
2147;SDS011;1080;48.724;9.104;2022-11-06T11:18:05;99.33;;;61.73;;
2147;SDS011;1080;48.724;9.104;2022-11-06T11:20:35;81.20;;;49.07;;
2147;SDS011;1080;48.724;9.104;2022-11-06T11:23:03;86.20;;;52.57;;
2147;SDS011;1080;48.724;9.104;2022-11-06T11:25:32;91.90;;;51.83;;
2147;SDS011;1080;48.724;9.104;2022-11-06T11:27:59;84.60;;;51.00;;
2147;SDS011;1080;48.724;9.104;2022-11-06T11:30:26;59.20;;;43.40;;
2147;SDS011;1080;48.724;9.104;2022-11-06T11:32:54;34.13;;;30.80;;
2147;SDS011;1080;48.724;9.104;2022-11-06T11:35:24;43.87;;;39.53;;
2147;SDS011;1080;48.724;9.104;2022-11-06T11:38:01;45.50;;;39.20;;
2147;SDS011;1080;48.724;9.104;2022-11-06T11:40:33;44.90;;;38.83;;
2147;SDS011;1080;48.724;9.104;2022-11-06T11:43:14;33.63;;;30.40;;
2147;SDS011;1080;48.724;9.104;2022-11-06T11:45:41;39.20;;;35.07;;
2147;SDS011;1080;48.724;9.104;2022-11-06T11:48:11;40.47;;;36.50;;
2147;SDS011;1080;48.724;9.104;2022-11-06T11:50:38;29.70;;;27.23;;
2147;SDS011;1080;48.724;9.104;2022-11-06T11:53:09;16.63;;;15.30;;
2147;SDS011;1080;48.724;9.104;2022-11-06T11:55:42;30.83;;;28.03;;
2147;SDS011;1080;48.724;9.104;2022-11-06T11:58:16;37.33;;;33.63;;
2147;SDS011;1080;48.724;9.104;2022-11-06T12:00:48;28.30;;;25.67;;
2147;SDS011;1080;48.724;9.104;2022-11-06T12:03:17;15.20;;;13.73;;
2147;SDS011;1080;48.724;9.104;2022-11-06T12:05:46;13.73;;;12.40;;
2147;SDS011;1080;48.724;9.104;2022-11-06T12:08:19;8.03;;;7.23;;
2147;SDS011;1080;48.724;9.104;2022-11-06T12:10:50;41.93;;;31.47;;
2147;SDS011;1080;48.724;9.104;2022-11-06T12:13:18;9.33;;;7.13;;
2147;SDS011;1080;48.724;9.104;2022-11-06T12:15:48;8.00;;;6.80;;
2147;SDS011;1080;48.724;9.104;2022-11-06T12:18:19;8.77;;;7.83;;
2147;SDS011;1080;48.724;9.104;2022-11-06T12:20:51;8.03;;;7.27;;
2147;SDS011;1080;48.724;9.104;2022-11-06T12:23:23;13.07;;;11.70;;
2147;SDS011;1080;48.724;9.104;2022-11-06T12:25:57;8.47;;;7.73;;
2147;SDS011;1080;48.724;9.104;2022-11-06T12:28:25;7.93;;;7.23;;
2147;SDS011;1080;48.724;9.104;2022-11-06T12:30:58;7.90;;;7.30;;
2147;SDS011;1080;48.724;9.104;2022-11-06T12:33:30;11.93;;;10.93;;
2147;SDS011;1080;48.724;9.104;2022-11-06T12:35:58;11.30;;;10.30;;
2147;SDS011;1080;48.724;9.104;2022-11-06T12:38:30;12.67;;;11.43;;
2147;SDS011;1080;48.724;9.104;2022-11-06T12:41:09;10.27;;;9.40;;
2147;SDS011;1080;48.724;9.104;2022-11-06T12:43:40;21.43;;;16.50;;
2147;SDS011;1080;48.724;9.104;2022-11-06T12:46:17;7.87;;;7.27;;
2147;SDS011;1080;48.724;9.104;2022-11-06T12:48:48;6.60;;;6.03;;
2147;SDS011;1080;48.724;9.104;2022-11-06T12:51:21;7.93;;;7.20;;
2147;SDS011;1080;48.724;9.104;2022-11-06T12:53:56;9.00;;;6.23;;
2147;SDS011;1080;48.724;9.104;2022-11-06T12:56:29;7.03;;;6.00;;
2147;SDS011;1080;48.724;9.104;2022-11-06T12:59:08;8.13;;;7.43;;
2147;SDS011;1080;48.724;9.104;2022-11-06T13:01:40;11.30;;;10.43;;
2147;SDS011;1080;48.724;9.104;2022-11-06T13:04:18;18.87;;;17.43;;
2147;SDS011;1080;48.724;9.104;2022-11-06T13:09:36;6.27;;;5.67;;
2147;SDS011;1080;48.724;9.104;2022-11-06T13:12:11;7.40;;;6.70;;
2147;SDS011;1080;48.724;9.104;2022-11-06T13:14:43;5.40;;;4.90;;
2147;SDS011;1080;48.724;9.104;2022-11-06T13:17:17;7.73;;;7.03;;
2147;SDS011;1080;48.724;9.104;2022-11-06T13:19:54;8.90;;;7.50;;
2147;SDS011;1080;48.724;9.104;2022-11-06T13:22:28;7.50;;;6.50;;
2147;SDS011;1080;48.724;9.104;2022-11-06T13:24:58;6.40;;;5.50;;
2147;SDS011;1080;48.724;9.104;2022-11-06T13:27:32;2.50;;;2.23;;
2147;SDS011;1080;48.724;9.104;2022-11-06T13:30:10;5.03;;;3.67;;
2147;SDS011;1080;48.724;9.104;2022-11-06T13:32:40;3.70;;;3.40;;
2147;SDS011;1080;48.724;9.104;2022-11-06T13:35:11;6.97;;;4.83;;
2147;SDS011;1080;48.724;9.104;2022-11-06T13:37:41;3.60;;;2.90;;
2147;SDS011;1080;48.724;9.104;2022-11-06T13:40:21;4.90;;;3.70;;
2147;SDS011;1080;48.724;9.104;2022-11-06T13:42:52;13.53;;;11.20;;
2147;SDS011;1080;48.724;9.104;2022-11-06T13:45:24;4.23;;;2.60;;
2147;SDS011;1080;48.724;9.104;2022-11-06T13:47:55;2.50;;;2.30;;
2147;SDS011;1080;48.724;9.104;2022-11-06T13:50:25;7.70;;;6.50;;
2147;SDS011;1080;48.724;9.104;2022-11-06T13:52:59;2.73;;;2.33;;
2147;SDS011;1080;48.724;9.104;2022-11-06T13:55:34;6.43;;;4.70;;
2147;SDS011;1080;48.724;9.104;2022-11-06T14:01:00;5.27;;;4.10;;
2147;SDS011;1080;48.724;9.104;2022-11-06T14:03:43;8.43;;;7.30;;
2147;SDS011;1080;48.724;9.104;2022-11-06T14:06:15;4.03;;;3.23;;
2147;SDS011;1080;48.724;9.104;2022-11-06T14:08:46;2.33;;;2.13;;
2147;SDS011;1080;48.724;9.104;2022-11-06T14:11:15;7.40;;;5.97;;
2147;SDS011;1080;48.724;9.104;2022-11-06T14:13:56;3.00;;;2.70;;
2147;SDS011;1080;48.724;9.104;2022-11-06T14:16:27;14.90;;;9.33;;
2147;SDS011;1080;48.724;9.104;2022-11-06T14:18:57;14.63;;;10.50;;
2147;SDS011;1080;48.724;9.104;2022-11-06T14:27:08;63.53;;;35.00;;
2147;SDS011;1080;48.724;9.104;2022-11-06T14:32:33;10.20;;;8.00;;
2147;SDS011;1080;48.724;9.104;2022-11-06T14:38:14;7.27;;;5.20;;
2147;SDS011;1080;48.724;9.104;2022-11-06T14:40:57;4.93;;;4.10;;
2147;SDS011;1080;48.724;9.104;2022-11-06T14:43:25;12.70;;;8.63;;
2147;SDS011;1080;48.724;9.104;2022-11-06T14:45:57;3.43;;;2.37;;
2147;SDS011;1080;48.724;9.104;2022-11-06T14:48:28;2.47;;;2.23;;
2147;SDS011;1080;48.724;9.104;2022-11-06T14:50:59;3.40;;;2.80;;
2147;SDS011;1080;48.724;9.104;2022-11-06T14:53:28;5.13;;;3.43;;
2147;SDS011;1080;48.724;9.104;2022-11-06T14:55:58;3.70;;;3.40;;
2147;SDS011;1080;48.724;9.104;2022-11-06T14:58:27;8.73;;;7.00;;
2147;SDS011;1080;48.724;9.104;2022-11-06T15:00:59;5.43;;;4.87;;
2147;SDS011;1080;48.724;9.104;2022-11-06T15:03:33;7.90;;;4.60;;
2147;SDS011;1080;48.724;9.104;2022-11-06T15:06:06;5.20;;;4.60;;
2147;SDS011;1080;48.724;9.104;2022-11-06T15:08:54;27.53;;;19.93;;
2147;SDS011;1080;48.724;9.104;2022-11-06T15:17:30;235.73;;;135.83;;
2147;SDS011;1080;48.724;9.104;2022-11-06T15:20:07;17.63;;;12.33;;
2147;SDS011;1080;48.724;9.104;2022-11-06T15:22:46;21.67;;;15.10;;
2147;SDS011;1080;48.724;9.104;2022-11-06T15:25:20;22.60;;;17.00;;
2147;SDS011;1080;48.724;9.104;2022-11-06T15:27:52;5.43;;;4.17;;
2147;SDS011;1080;48.724;9.104;2022-11-06T15:30:21;4.90;;;4.50;;
2147;SDS011;1080;48.724;9.104;2022-11-06T15:32:50;9.97;;;6.27;;
2147;SDS011;1080;48.724;9.104;2022-11-06T15:35:19;31.00;;;28.20;;
2147;SDS011;1080;48.724;9.104;2022-11-06T15:37:49;5.93;;;5.30;;
2147;SDS011;1080;48.724;9.104;2022-11-06T15:40:21;5.07;;;3.60;;
2147;SDS011;1080;48.724;9.104;2022-11-06T15:42:50;4.53;;;3.70;;
2147;SDS011;1080;48.724;9.104;2022-11-06T15:45:21;23.23;;;20.60;;
2147;SDS011;1080;48.724;9.104;2022-11-06T15:47:55;15.77;;;12.10;;
2147;SDS011;1080;48.724;9.104;2022-11-06T15:50:24;4.93;;;4.00;;